Paynesville, MN

11:34 AM CDT on April 28, 2017 (GMT -0500)
Paynesville

Weather History for KPEX - July, 2013

Change the Weather History Date:

Friday, July 12, 2013

  Actual Average (KLJF) Record (KLJF)
Temperature  
Mean Temperature 77 °F -  
Max Temperature 86 °F 83 °F 96 °F (1976)
Min Temperature 68 °F 61 °F 46 °F (1959)
Cooling Degree Days 12    
Growing Degree Days 27 (Base 50)    
Moisture  
Dew Point 60 °F    
Average Humidity 55    
Maximum Humidity 67    
Minimum Humidity 46    
Precipitation  
Precipitation 0.00 in - - ()
Sea Level Pressure  
Sea Level Pressure 29.92 in    
Wind  
Wind Speed 12 mph (SSE)    
Max Wind Speed 20 mph    
Max Gust Speed 28 mph    
Visibility 8 miles    
Events Rain , Thunderstorm    
Averages and records for this station are not official NWS values.
T = Trace of Precipitation, MM = Missing Value Source: NWS Daily Summary

Daily Weather History Graph

Daily Weather History Graph

Search for Another Location

Airport or City:

Trip Planner

Search our weather history database for the weather conditions in past years. The results will help you decide how hot, cold, wet, or windy it might be!

Date:

Astronomy

Jul. 12, 2013 Rise Set
Actual Time 5:42 AM CDT 9:06 PM CDT
Civil Twilight 5:06 AM CDT 9:42 PM CDT
Nautical Twilight 4:18 AM CDT 10:30 PM CDT
Astronomical Twilight 3:17 AM CDT 11:30 PM CDT
Moon 10:15 AM CDT (7/12) 11:00 PM CDT (7/12)
Length of Visible Light 16h 36m
Length of Day
15h 23m
Waxing Crescent, 17% of the Moon is Illuminated
Jul 12
Waxing Crescent
Jul 15
First Quarter
Jul 22
Full
Jul 29
Last Quarter
Aug 6
New

Hourly Weather History & Observations

Time (CDT) Temp. Heat Index Dew Point Humidity Pressure Visibility Wind Dir Wind Speed Gust Speed Precip Events Conditions
12:13 AM 73.2 °F - 56.3 °F 55% 29.96 in 10.0 mi SSE 11.5 mph 17.3 mph N/A   Clear
12:33 AM 72.7 °F - 55.9 °F 56% 29.96 in 10.0 mi South 11.5 mph 17.3 mph N/A   Clear
12:53 AM 72.5 °F - 55.4 °F 55% 29.96 in 10.0 mi SSE 11.5 mph 18.4 mph N/A   Clear
1:12 AM 72.5 °F - 55.4 °F 55% 29.97 in 10.0 mi South 10.4 mph 18.4 mph N/A   Clear
1:33 AM 72.1 °F - 54.9 °F 54% 29.97 in 10.0 mi South 11.5 mph 19.6 mph N/A   Clear
1:52 AM 72.0 °F - 54.9 °F 55% 29.96 in 10.0 mi South 9.2 mph - N/A   Clear
2:13 AM 71.8 °F - 55.0 °F 55% 29.97 in 10.0 mi South 10.4 mph 17.3 mph N/A   Clear
2:32 AM 71.2 °F - 55.2 °F 57% 29.97 in 10.0 mi South 10.4 mph 17.3 mph N/A   Clear
2:53 AM 71.1 °F - 55.4 °F 58% 29.96 in 10.0 mi SSE 9.2 mph 16.1 mph N/A   Clear
3:13 AM 70.9 °F - 55.8 °F 59% 29.96 in 10.0 mi South 10.4 mph 21.9 mph N/A   Clear
3:32 AM 70.7 °F - 55.9 °F 59% 29.95 in 10.0 mi SSE 13.8 mph 18.4 mph N/A   Clear
3:53 AM 70.3 °F - 56.1 °F 61% 29.94 in 10.0 mi SSE 13.8 mph 20.7 mph N/A   Clear
4:13 AM 70.2 °F - 56.3 °F 61% 29.95 in 10.0 mi SSE 13.8 mph 19.6 mph N/A   Clear
4:33 AM 70.0 °F - 56.3 °F 62% 29.96 in 10.0 mi South 12.7 mph 19.6 mph N/A   Clear
4:53 AM 69.6 °F - 56.3 °F 63% 29.95 in 10.0 mi South 9.2 mph - N/A   Clear
5:13 AM 69.3 °F - 56.3 °F 63% 29.96 in 10.0 mi South 9.2 mph 17.3 mph N/A   Clear
5:33 AM 68.9 °F - 56.3 °F 64% 29.96 in 10.0 mi SSE 11.5 mph 16.1 mph N/A   Clear
5:53 AM 68.4 °F - 56.3 °F 65% 29.97 in 10.0 mi South 10.4 mph 17.3 mph N/A   Clear
6:13 AM 68.4 °F - 56.5 °F 66% 29.96 in 7.0 mi South 11.5 mph - N/A   Clear
6:33 AM 68.4 °F - 56.8 °F 67% 29.96 in 10.0 mi South 11.5 mph 17.3 mph N/A   Clear
6:53 AM 68.5 °F - 57.0 °F 67% 29.96 in 10.0 mi South 10.4 mph 17.3 mph N/A   Clear
7:13 AM 69.1 °F - 57.2 °F 66% 29.96 in 10.0 mi SSE 11.5 mph 17.3 mph N/A   Clear
7:33 AM 69.8 °F - 57.6 °F 65% 29.96 in 10.0 mi SSE 12.7 mph 17.3 mph N/A   Clear
7:53 AM 70.0 °F - 58.1 °F 66% 29.97 in 10.0 mi SSE 11.5 mph 17.3 mph N/A   Clear
8:13 AM 70.9 °F - 58.3 °F 64% 29.96 in 10.0 mi SSE 12.7 mph 18.4 mph N/A   Clear
8:33 AM 72.0 °F - 58.3 °F 62% 29.97 in 10.0 mi SSE 15.0 mph 18.4 mph N/A   Clear
8:53 AM 73.0 °F - 58.6 °F 61% 29.96 in 10.0 mi South 12.7 mph - N/A   Clear
9:13 AM 73.6 °F - 58.5 °F 59% 29.96 in 10.0 mi South 12.7 mph 19.6 mph N/A   Clear
9:33 AM 74.7 °F - 59.0 °F 58% 29.95 in 10.0 mi SSE 11.5 mph 21.9 mph N/A   Clear
9:53 AM 75.7 °F - 59.9 °F 58% 29.94 in 10.0 mi SSE 13.8 mph - N/A   Clear
10:12 AM 76.8 °F - 59.9 °F 56% 29.94 in 10.0 mi SSE 16.1 mph 21.9 mph N/A   Clear
10:33 AM 77.4 °F - 59.7 °F 54% 29.94 in 10.0 mi SSE 16.1 mph 21.9 mph N/A   Clear
10:53 AM 78.6 °F - 60.6 °F 54% 29.93 in 10.0 mi SSE 12.7 mph 20.7 mph N/A   Clear
11:13 AM 79.3 °F - 61.0 °F 53% 29.93 in 10.0 mi SSE 13.8 mph 19.6 mph N/A   Clear
11:32 AM 79.9 °F - 61.9 °F 54% 29.92 in 7.0 mi SSE 11.5 mph 20.7 mph N/A   Clear
11:53 AM 80.8 °F 81.9 °F 62.1 °F 53% 29.92 in 7.0 mi SSE 16.1 mph 23.0 mph N/A   Clear
12:13 PM 81.3 °F 82.5 °F 62.6 °F 53% 29.92 in 10.0 mi SSE 15.0 mph 19.6 mph N/A   Clear
12:33 PM 81.9 °F 82.9 °F 62.4 °F 52% 29.92 in 10.0 mi SE 18.4 mph 24.2 mph N/A   Clear
12:53 PM 82.4 °F 83.5 °F 63.1 °F 52% 29.91 in 10.0 mi SSE 16.1 mph 24.2 mph N/A   Clear
1:13 PM 82.9 °F 84.0 °F 63.1 °F 51% 29.91 in 7.0 mi SSE 18.4 mph 26.5 mph N/A   Clear
1:33 PM 83.7 °F 84.9 °F 63.5 °F 51% 29.90 in 5.0 mi SE 18.4 mph 24.2 mph N/A   Haze
1:53 PM 84.4 °F 85.6 °F 63.7 °F 50% 29.90 in 5.0 mi SSE 15.0 mph 25.3 mph N/A   Haze
2:13 PM 84.4 °F 85.9 °F 64.4 °F 51% 29.90 in 7.0 mi SSE 16.1 mph 24.2 mph N/A   Clear
2:33 PM 85.1 °F 86.6 °F 64.8 °F 50% 29.89 in 7.0 mi SSE 13.8 mph 23.0 mph N/A   Clear
2:53 PM 85.3 °F 86.8 °F 64.8 °F 50% 29.89 in 5.0 mi SSE 11.5 mph 23.0 mph N/A   Haze
3:13 PM 86.0 °F 87.6 °F 64.9 °F 49% 29.89 in 7.0 mi SSE 12.7 mph 27.6 mph N/A   Clear
3:33 PM 86.2 °F 87.6 °F 64.6 °F 48% 29.89 in 7.0 mi SSE 16.1 mph 23.0 mph N/A   Clear
3:53 PM 86.5 °F 87.8 °F 64.0 °F 47% 29.89 in 7.0 mi SSE 19.6 mph 26.5 mph N/A   Clear
4:12 PM 86.2 °F 87.9 °F 64.8 °F 49% 29.89 in 7.0 mi SSE 11.5 mph 19.6 mph N/A   Clear
4:33 PM 86.7 °F 88.4 °F 64.6 °F 48% 29.89 in 7.0 mi SSE 19.6 mph 25.3 mph N/A   Clear
4:52 PM 86.5 °F 87.6 °F 63.5 °F 46% 29.88 in 5.0 mi SSE 18.4 mph 26.5 mph N/A   Haze
5:13 PM 86.9 °F 88.1 °F 63.9 °F 46% 29.88 in 5.0 mi SSE 16.1 mph 25.3 mph N/A   Haze
5:33 PM 86.7 °F 87.8 °F 63.5 °F 46% 29.87 in 7.0 mi SSE 16.1 mph 25.3 mph N/A   Clear
5:53 PM 86.4 °F 87.6 °F 63.7 °F 47% 29.87 in 7.0 mi SSE 17.3 mph 25.3 mph N/A   Clear
6:13 PM 85.8 °F 86.6 °F 62.8 °F 46% 29.87 in 5.0 mi SSE 15.0 mph 24.2 mph N/A   Haze
6:33 PM 85.3 °F 86.4 °F 63.3 °F 48% 29.87 in 7.0 mi SSE 15.0 mph 21.9 mph N/A   Clear
6:53 PM 84.7 °F 85.6 °F 62.8 °F 48% 29.87 in 7.0 mi SSE 12.7 mph 23.0 mph N/A   Clear
7:13 PM 84.2 °F 85.0 °F 62.4 °F 48% 29.86 in 7.0 mi SSE 13.8 mph 20.7 mph N/A   Clear
7:32 PM 83.5 °F 84.1 °F 61.9 °F 48% 29.86 in 5.0 mi SSE 12.7 mph 18.4 mph N/A   Haze
7:53 PM 83.3 °F 83.9 °F 61.5 °F 48% 29.85 in 7.0 mi SSE 16.1 mph 23.0 mph N/A   Clear
8:13 PM 82.2 °F 82.9 °F 61.3 °F 49% 29.85 in 7.0 mi SSE 13.8 mph 20.7 mph N/A   Clear
8:32 PM 81.7 °F 82.3 °F 60.8 °F 49% 29.85 in 5.0 mi SSE 11.5 mph 19.6 mph N/A   Haze
8:53 PM 81.1 °F 81.9 °F 60.8 °F 50% 29.85 in 7.0 mi SSE 10.4 mph 17.3 mph N/A   Clear
9:13 PM 80.2 °F 81.3 °F 61.5 °F 53% 29.86 in 7.0 mi SSE 9.2 mph 16.1 mph N/A   Clear
9:33 PM 79.7 °F - 61.3 °F 53% 29.87 in 7.0 mi SSE 9.2 mph 18.4 mph N/A   Clear
9:53 PM 79.2 °F - 60.8 °F 53% 29.88 in 7.0 mi SSE 12.7 mph 17.3 mph N/A   Clear
10:13 PM 79.2 °F - 60.4 °F 53% 29.89 in 7.0 mi SSE 9.2 mph 17.3 mph N/A   Clear
10:33 PM 78.8 °F - 60.6 °F 54% 29.89 in 7.0 mi SSE 10.4 mph 16.1 mph N/A   Clear
10:52 PM 78.3 °F - 60.6 °F 54% 29.91 in 10.0 mi SSE 8.1 mph 16.1 mph N/A   Scattered Clouds
11:13 PM 78.1 °F - 60.8 °F 55% 29.90 in 7.0 mi SSE 10.4 mph - N/A   Scattered Clouds
11:33 PM 77.9 °F - 60.8 °F 56% 29.90 in 7.0 mi SSE 11.5 mph - N/A Thunderstorm Clear
11:53 PM 77.4 °F - 61.5 °F 58% 29.91 in 7.0 mi SSE 6.9 mph 17.3 mph N/A Rain , Thunderstorm Rain